Time;durP1;ratioP1;P1;durP2;ratioP2;P2;SDS_P1;SDS_P2;PMS_P1;PMS_P2;Temp;Humidity;BMP_temperature;BMP_pressure;BME280_temperature;BME280_humidity;BME280_pressure;Samples;Min_cycle;Max_cycle;Signal;HPM_P1;HPM_P2
2022/08/16 00:00:19;;;;;;;9.43;3.33;;;;;;;24.62;54.39;99274.03;1760429;78;21417;-78
2022/08/16 00:02:46;;;;;;;6.80;2.77;;;;;;;24.60;54.53;99274.77;1794405;78;21552;-79
2022/08/16 00:05:13;;;;;;;7.15;2.98;;;;;;;24.55;54.67;99271.98;1795711;78;21014;-79
2022/08/16 00:07:39;;;;;;;7.10;3.20;;;;;;;24.54;54.69;99277.92;1817787;77;21771;-78
2022/08/16 00:10:07;;;;;;;6.17;2.85;;;;;;;24.53;54.81;99277.63;1784715;78;21059;-77
2022/08/16 00:12:34;;;;;;;6.20;3.10;;;;;;;24.50;54.92;99279.44;1821997;77;21015;-79
2022/08/16 00:15:04;;;;;;;11.35;3.20;;;;;;;24.48;54.84;99277.52;1822136;78;20940;-78
2022/08/16 00:17:31;;;;;;;7.50;3.40;;;;;;;24.45;55.02;99273.13;1793444;78;21334;-78
2022/08/16 00:19:58;;;;;;;5.72;3.12;;;;;;;24.43;55.06;99280.66;1821576;77;22399;-78
2022/08/16 00:22:24;;;;;;;8.05;3.20;;;;;;;24.39;55.60;99272.19;1809080;77;21505;-79
2022/08/16 00:24:54;;;;;;;8.08;3.17;;;;;;;24.34;55.86;99274.80;1813511;78;20987;-77
2022/08/16 00:27:22;;;;;;;10.55;2.98;;;;;;;24.29;55.91;99270.61;1775511;80;21070;-78
2022/08/16 00:29:49;;;;;;;5.60;3.40;;;;;;;24.24;56.42;99274.56;1801913;78;21074;-77
2022/08/16 00:32:15;;;;;;;9.28;3.20;;;;;;;24.18;56.34;99279.02;1794785;78;21981;-78
2022/08/16 00:34:43;;;;;;;6.33;3.15;;;;;;;24.16;56.25;99274.92;1800957;78;21075;-77
2022/08/16 00:37:09;;;;;;;5.45;2.62;;;;;;;24.14;56.21;99270.30;1796952;78;20942;-78
2022/08/16 00:39:36;;;;;;;7.62;3.02;;;;;;;24.12;56.34;99271.86;1777052;78;21546;-79
2022/08/16 00:42:03;;;;;;;6.37;3.08;;;;;;;24.10;56.49;99273.16;1799384;78;21048;-78
2022/08/16 00:44:29;;;;;;;7.67;3.55;;;;;;;24.08;56.48;99276.09;1824268;77;22540;-78
2022/08/16 00:47:04;;;;;;;8.38;3.30;;;;;;;24.07;56.47;99275.80;1786286;78;21055;-78
2022/08/16 00:49:32;;;;;;;7.45;3.12;;;;;;;24.05;56.67;99268.48;1797459;78;20957;-78
2022/08/16 00:52:00;;;;;;;8.80;3.40;;;;;;;24.03;56.85;99272.45;1808471;78;21020;-77
2022/08/16 00:54:29;;;;;;;8.10;3.22;;;;;;;24.01;56.98;99278.61;1811300;77;20981;-78
2022/08/16 00:56:56;;;;;;;10.13;3.22;;;;;;;24.00;57.01;99275.10;1788993;78;21913;-78
2022/08/16 00:59:24;;;;;;;5.80;3.62;;;;;;;23.98;57.22;99265.90;1836500;77;20947;-78
2022/08/16 01:01:51;;;;;;;5.78;2.98;;;;;;;23.95;57.65;99259.64;1808980;78;20990;-78
2022/08/16 01:04:21;;;;;;;10.55;3.60;;;;;;;23.92;57.73;99262.79;1819041;77;21011;-78
2022/08/16 01:06:49;;;;;;;6.95;3.60;;;;;;;23.90;57.92;99263.56;1758511;78;21104;-78
2022/08/16 01:09:16;;;;;;;12.30;3.50;;;;;;;23.87;58.14;99261.87;1776834;79;22436;-77
2022/08/16 01:11:43;;;;;;;7.60;3.55;;;;;;;23.84;58.41;99261.00;1802225;78;21006;-77
2022/08/16 01:14:20;;;;;;;4.92;3.42;;;;;;;23.79;58.56;99258.17;1803796;78;21063;-77
2022/08/16 01:16:47;;;;;;;6.87;3.62;;;;;;;23.74;58.88;99265.63;1811431;77;21057;-78
2022/08/16 01:19:25;;;;;;;3.85;3.35;;;;;;;23.64;59.38;99264.02;1788788;78;21535;-78
2022/08/16 01:21:59;;;;;;;6.95;3.40;;;;;;;23.54;59.77;99266.44;1815110;77;22244;-78
2022/08/16 01:24:32;;;;;;;8.85;3.77;;;;;;;23.44;60.09;99260.28;1822149;77;20984;-80
2022/08/16 01:27:19;;;;;;;6.20;3.65;;;;;;;23.34;60.46;99258.16;1788746;78;20954;-78
2022/08/16 01:30:00;;;;;;;10.18;3.70;;;;;;;23.25;60.77;99260.89;1804991;77;21018;-79
2022/08/16 01:32:30;;;;;;;6.85;3.83;;;;;;;23.12;61.11;99263.80;1799061;79;20931;-78
2022/08/16 01:34:57;;;;;;;6.12;3.90;;;;;;;23.01;61.47;99264.06;1809232;77;22408;-78
2022/08/16 01:37:25;;;;;;;9.83;3.52;;;;;;;22.94;61.69;99266.55;1803660;79;21019;-78
2022/08/16 01:39:52;;;;;;;8.20;3.80;;;;;;;22.86;61.92;99270.37;1786905;79;21351;-77
2022/08/16 01:42:18;;;;;;;5.47;3.62;;;;;;;22.80;62.16;99274.79;1802451;79;21054;-81
2022/08/16 01:44:45;;;;;;;8.03;3.70;;;;;;;22.74;62.30;99277.03;1797385;79;21039;-76
2022/08/16 01:47:11;;;;;;;6.97;3.90;;;;;;;22.70;62.48;99283.11;1811464;79;21757;-77
2022/08/16 01:49:41;;;;;;;5.50;3.67;;;;;;;22.66;62.60;99283.25;1814510;79;20937;-79
2022/08/16 01:52:14;;;;;;;7.85;4.00;;;;;;;22.64;62.60;99286.17;1813605;79;20944;-78
2022/08/16 01:54:42;;;;;;;7.05;3.77;;;;;;;22.66;62.79;99285.94;1810961;79;20992;-78
2022/08/16 01:57:09;;;;;;;5.08;3.95;;;;;;;22.69;62.83;99295.75;1810379;79;21384;-77
2022/08/16 01:59:36;;;;;;;9.53;4.10;;;;;;;22.74;62.97;99294.53;1796224;79;21494;-77
2022/08/16 02:02:04;;;;;;;9.60;3.92;;;;;;;22.82;63.14;99296.91;1813325;79;21481;-78
2022/08/16 02:04:32;;;;;;;5.90;3.77;;;;;;;22.89;63.33;99294.70;1815076;79;20999;-77
2022/08/16 02:06:58;;;;;;;9.75;4.25;;;;;;;22.92;63.84;99302.31;1811985;79;21510;-77
2022/08/16 02:09:25;;;;;;;9.15;4.35;;;;;;;22.98;64.41;99304.92;1792019;79;21011;-77
2022/08/16 02:11:56;;;;;;;10.35;4.53;;;;;;;23.02;64.82;99299.36;1785628;79;22450;-77
2022/08/16 02:14:26;;;;;;;6.90;4.60;;;;;;;23.07;65.13;99302.73;1798976;79;21016;-78
2022/08/16 02:16:55;;;;;;;8.63;4.60;;;;;;;23.12;65.50;99301.51;1815277;79;21032;-80
2022/08/16 02:19:22;;;;;;;10.38;5.10;;;;;;;23.14;66.13;99300.22;1788342;79;20988;-77
2022/08/16 02:21:51;;;;;;;5.83;4.67;;;;;;;23.19;66.46;99306.28;1814234;77;20941;-77
2022/08/16 02:24:18;;;;;;;12.30;4.62;;;;;;;23.22;66.66;99307.16;1790371;79;21793;-79
2022/08/16 02:26:46;;;;;;;10.55;5.30;;;;;;;23.27;66.90;99311.34;1812130;79;21455;-78
2022/08/16 02:29:13;;;;;;;10.82;5.30;;;;;;;23.29;67.12;99320.02;1797830;79;21511;-77
2022/08/16 02:31:39;;;;;;;10.53;5.35;;;;;;;23.31;67.35;99318.43;1805324;78;21605;-78
2022/08/16 02:34:07;;;;;;;12.28;5.78;;;;;;;23.34;67.57;99319.30;1820915;78;22136;-77
2022/08/16 02:36:35;;;;;;;9.80;5.65;;;;;;;23.37;67.88;99319.69;1817511;78;22595;-77
2022/08/16 02:39:02;;;;;;;9.98;6.10;;;;;;;23.39;68.00;99319.45;1812796;78;21327;-78
2022/08/16 02:41:29;;;;;;;10.95;6.28;;;;;;;23.42;68.22;99323.84;1816301;78;20999;-78
2022/08/16 02:43:57;;;;;;;14.73;6.33;;;;;;;23.45;68.39;99318.54;1812994;78;21095;-78
2022/08/16 02:46:24;;;;;;;10.25;5.97;;;;;;;23.47;68.40;99321.00;1784666;78;21535;-78
2022/08/16 02:48:51;;;;;;;9.43;6.40;;;;;;;23.49;68.46;99317.54;1814160;78;22878;-78
2022/08/16 02:51:17;;;;;;;9.90;6.70;;;;;;;23.51;68.58;99317.59;1793962;78;21014;-78
2022/08/16 02:53:46;;;;;;;10.68;6.37;;;;;;;23.51;68.56;99322.98;1807725;78;21059;-78
2022/08/16 02:56:14;;;;;;;12.15;6.78;;;;;;;23.52;68.56;99322.45;1811030;77;21020;-77
2022/08/16 02:58:42;;;;;;;10.38;6.30;;;;;;;23.51;68.43;99320.81;1791529;78;21411;-77
2022/08/16 03:01:11;;;;;;;13.55;7.17;;;;;;;23.50;68.46;99325.92;1805920;77;21802;-77
2022/08/16 03:03:38;;;;;;;11.75;7.05;;;;;;;23.49;68.38;99321.58;1794123;78;21390;-77
2022/08/16 03:06:05;;;;;;;14.80;7.33;;;;;;;23.47;68.24;99329.91;1824049;77;21012;-77
2022/08/16 03:08:32;;;;;;;14.68;7.40;;;;;;;23.46;67.97;99328.27;1808558;78;21082;-78
2022/08/16 03:10:59;;;;;;;12.65;7.00;;;;;;;23.47;67.71;99339.87;1773863;79;20996;-77
2022/08/16 03:13:26;;;;;;;14.07;7.33;;;;;;;23.46;67.46;99343.62;1822281;77;22855;-77
2022/08/16 03:15:53;;;;;;;15.95;8.18;;;;;;;23.45;67.29;99338.75;1812542;78;21517;-77
2022/08/16 03:18:19;;;;;;;14.70;7.70;;;;;;;23.43;67.11;99337.61;1790969;78;20980;-78
2022/08/16 03:20:46;;;;;;;12.58;7.45;;;;;;;23.43;66.96;99343.00;1781074;78;21012;-77
2022/08/16 03:23:13;;;;;;;10.00;7.37;;;;;;;23.43;66.83;99334.92;1814302;78;20948;-77
2022/08/16 03:25:39;;;;;;;11.85;7.62;;;;;;;23.44;66.78;99324.95;1821158;78;21776;-77
2022/08/16 03:28:06;;;;;;;12.37;7.85;;;;;;;23.46;66.68;99312.09;1813350;78;21106;-79
2022/08/16 03:30:34;;;;;;;12.70;7.92;;;;;;;23.47;66.69;99309.69;1775164;80;21106;-77
2022/08/16 03:33:03;;;;;;;11.10;7.72;;;;;;;23.50;66.73;99321.34;1810847;78;21006;-77
2022/08/16 03:35:34;;;;;;;14.80;8.20;;;;;;;23.51;66.80;99318.94;1818295;77;21695;-77
2022/08/16 03:38:06;;;;;;;16.25;8.45;;;;;;;23.53;66.78;99318.70;1823364;77;21824;-77
2022/08/16 03:40:35;;;;;;;16.73;8.03;;;;;;;23.56;66.78;99319.61;1817370;78;21514;-78
2022/08/16 03:43:04;;;;;;;21.40;7.78;;;;;;;23.57;66.66;99315.86;1817143;77;21020;-77
2022/08/16 03:45:32;;;;;;;16.15;7.70;;;;;;;23.60;66.62;99326.20;1817400;77;21358;-77
2022/08/16 03:48:01;;;;;;;15.80;8.40;;;;;;;23.62;66.53;99328.13;1817225;77;20936;-78
2022/08/16 03:50:30;;;;;;;17.48;8.40;;;;;;;23.64;66.46;99332.76;1786797;78;21773;-78
2022/08/16 03:52:56;;;;;;;16.65;8.35;;;;;;;23.68;66.39;99329.91;1788063;78;20999;-78
2022/08/16 03:55:23;;;;;;;15.38;8.48;;;;;;;23.69;66.29;99317.55;1794082;78;21032;-76
2022/08/16 03:57:52;;;;;;;15.95;8.30;;;;;;;23.70;66.21;99315.14;1807734;78;20964;-78
2022/08/16 04:00:24;;;;;;;19.32;9.18;;;;;;;23.69;66.17;99317.55;1813332;78;21394;-76
2022/08/16 04:02:51;;;;;;;13.35;9.03;;;;;;;23.70;66.07;99325.10;1821570;78;22739;-76
2022/08/16 04:05:18;;;;;;;13.62;8.68;;;;;;;23.71;65.77;99338.87;1760187;80;21514;-79
2022/08/16 04:07:45;;;;;;;17.95;8.98;;;;;;;23.75;65.57;99345.99;1793593;78;21069;-77
2022/08/16 04:10:13;;;;;;;12.65;8.83;;;;;;;23.77;65.29;99342.00;1793439;78;21020;-76
2022/08/16 04:12:40;;;;;;;14.10;9.35;;;;;;;23.79;65.17;99347.97;1792763;78;21062;-76
2022/08/16 04:15:12;;;;;;;16.20;9.28;;;;;;;23.81;64.88;99354.48;1823090;78;22509;-77
2022/08/16 04:17:40;;;;;;;17.85;10.50;;;;;;;23.81;64.77;99349.91;1809765;78;20973;-77
2022/08/16 04:20:10;;;;;;;13.95;9.35;;;;;;;23.86;64.50;99345.17;1789939;78;21149;-78
2022/08/16 04:22:38;;;;;;;17.73;10.25;;;;;;;23.88;64.28;99353.32;1821679;78;21409;-79
2022/08/16 04:25:06;;;;;;;15.72;9.93;;;;;;;23.92;64.03;99357.71;1821832;77;21106;-78
2022/08/16 04:27:34;;;;;;;20.08;10.38;;;;;;;23.96;63.89;99373.73;1820465;77;21789;-77
2022/08/16 04:30:02;;;;;;;19.32;10.38;;;;;;;24.00;63.76;99365.46;1823977;77;20925;-77
2022/08/16 04:32:30;;;;;;;14.50;9.05;;;;;;;24.02;63.59;99365.22;1768221;79;21487;-77
2022/08/16 04:34:57;;;;;;;16.65;9.60;;;;;;;24.03;63.32;99374.45;1782734;78;20971;-76
2022/08/16 04:37:24;;;;;;;20.43;9.68;;;;;;;24.01;63.21;99389.21;1787215;78;21017;-77
2022/08/16 04:39:53;;;;;;;19.60;9.55;;;;;;;23.98;63.27;99377.02;1812739;77;22490;-77
2022/08/16 04:42:20;;;;;;;15.55;9.35;;;;;;;23.96;63.26;99361.60;1822053;77;20954;-78
2022/08/16 04:44:48;;;;;;;16.95;9.30;;;;;;;23.96;63.05;99369.16;1824070;77;21372;-79
2022/08/16 04:47:15;;;;;;;16.23;9.93;;;;;;;23.93;62.87;99372.83;1824255;77;21067;-76
2022/08/16 04:49:43;;;;;;;18.57;9.73;;;;;;;23.90;62.85;99376.83;1813389;77;21050;-77
2022/08/16 04:52:09;;;;;;;15.18;10.05;;;;;;;23.88;62.84;99387.03;1820363;77;21800;-77
2022/08/16 04:54:36;;;;;;;25.05;10.40;;;;;;;23.87;62.98;99394.02;1815120;77;21039;-78
2022/08/16 04:57:03;;;;;;;16.77;10.60;;;;;;;23.86;63.03;99403.16;1790667;78;21011;-78
2022/08/16 04:59:30;;;;;;;21.25;11.03;;;;;;;23.85;63.17;99406.38;1823451;77;20948;-77
2022/08/16 05:01:57;;;;;;;18.40;11.22;;;;;;;23.84;63.21;99406.09;1778235;78;20958;-78
2022/08/16 05:04:26;;;;;;;24.95;11.10;;;;;;;23.82;63.31;99401.96;1815428;78;21934;-75
2022/08/16 05:06:52;;;;;;;25.37;10.82;;;;;;;23.83;63.47;99415.73;1805656;78;21035;-76
2022/08/16 05:09:21;;;;;;;17.90;10.35;;;;;;;23.85;63.49;99421.22;1798142;78;20943;-77
2022/08/16 05:11:48;;;;;;;20.90;10.78;;;;;;;23.88;63.49;99438.80;1820573;78;21010;-77
2022/08/16 05:14:14;;;;;;;20.00;11.15;;;;;;;23.88;63.62;99441.50;1810687;78;21430;-76
2022/08/16 05:16:42;;;;;;;17.35;12.18;;;;;;;23.87;63.75;99447.42;1812498;78;21732;-77
2022/08/16 05:19:10;;;;;;;15.23;11.00;;;;;;;23.84;64.24;99460.02;1832601;77;20945;-76
2022/08/16 05:21:42;;;;;;;22.90;11.85;;;;;;;23.80;64.41;99464.22;1822508;77;20964;-75
2022/08/16 05:24:09;;;;;;;20.65;12.43;;;;;;;23.78;64.69;99474.42;1826402;77;21039;-74
2022/08/16 05:26:36;;;;;;;17.90;10.82;;;;;;;23.75;65.29;99494.29;1798986;77;21054;-78
2022/08/16 05:29:05;;;;;;;23.02;11.65;;;;;;;23.72;65.89;99495.55;1824963;77;22447;-76
2022/08/16 05:31:32;;;;;;;18.70;10.35;;;;;;;23.67;66.51;99486.81;1826076;77;20936;-74
2022/08/16 05:34:00;;;;;;;19.50;12.35;;;;;;;23.66;67.53;99501.34;1822500;77;21019;-74
2022/08/16 05:36:31;;;;;;;28.60;12.15;;;;;;;23.66;68.26;99498.64;1801381;78;20980;-72
2022/08/16 05:38:58;;;;;;;24.75;12.33;;;;;;;23.64;70.04;99526.86;1800313;78;21035;-74
2022/08/16 05:41:27;;;;;;;26.95;12.78;;;;;;;23.49;72.06;99544.76;1798063;78;21892;-76
2022/08/16 05:43:53;;;;;;;18.87;10.20;;;;;;;23.14;73.71;99558.00;1799864;78;21011;-73
2022/08/16 05:46:22;;;;;;;17.25;10.08;;;;;;;22.72;74.65;99556.41;1811408;78;20999;-74
2022/08/16 05:48:48;;;;;;;21.52;10.65;;;;;;;22.45;75.50;99571.12;1816431;77;20996;-74
2022/08/16 05:51:15;;;;;;;21.05;11.25;;;;;;;22.27;76.64;99590.17;1806758;77;21047;-74
2022/08/16 05:53:41;;;;;;;17.87;10.65;;;;;;;22.12;77.62;99588.31;1800771;78;22889;-76
2022/08/16 05:56:13;;;;;;;17.25;9.83;;;;;;;21.95;78.19;99606.77;1803273;78;20931;-74
2022/08/16 05:58:41;;;;;;;18.17;9.70;;;;;;;21.83;78.74;99603.64;1807596;77;21049;-75
2022/08/16 06:01:08;;;;;;;15.43;9.65;;;;;;;21.68;78.99;99623.52;1822619;77;20998;-74
2022/08/16 06:03:36;;;;;;;20.45;10.05;;;;;;;21.55;79.47;99630.81;1818399;77;20996;-73
2022/08/16 06:06:05;;;;;;;16.97;9.98;;;;;;;21.47;79.89;99630.52;1824137;77;22555;-75
2022/08/16 06:08:32;;;;;;;19.32;10.45;;;;;;;21.40;80.37;99615.75;1821589;77;21015;-74
2022/08/16 06:11:00;;;;;;;19.30;10.03;;;;;;;21.35;80.74;99620.95;1808438;77;21035;-78
2022/08/16 06:13:27;;;;;;;14.53;10.03;;;;;;;21.29;81.05;99620.43;1798672;78;21023;-73
2022/08/16 06:15:54;;;;;;;14.05;9.33;;;;;;;21.26;81.19;99607.42;1795821;78;21136;-73
2022/08/16 06:18:20;;;;;;;13.62;9.05;;;;;;;21.24;81.36;99601.94;1828615;77;21914;-74
2022/08/16 06:20:48;;;;;;;11.97;7.90;;;;;;;21.22;81.39;99591.89;1794166;78;21097;-74
2022/08/16 06:23:16;;;;;;;12.47;6.90;;;;;;;21.18;81.00;99576.73;1819747;78;20947;-73
2022/08/16 06:25:45;;;;;;;7.92;5.67;;;;;;;21.19;80.73;99568.16;1819151;77;20991;-73
2022/08/16 06:28:11;;;;;;;8.88;5.08;;;;;;;21.18;80.25;99563.82;1780331;78;20940;-75
2022/08/16 06:30:38;;;;;;;10.93;5.80;;;;;;;21.18;79.72;99551.73;1810974;78;21911;-73
2022/08/16 06:33:08;;;;;;;12.30;5.47;;;;;;;21.21;79.33;99556.67;1796896;78;21004;-77
2022/08/16 06:35:35;;;;;;;8.85;5.33;;;;;;;21.21;79.09;99546.75;1804534;78;20983;-75
2022/08/16 06:38:03;;;;;;;9.38;5.28;;;;;;;21.23;78.73;99546.05;1805860;78;21027;-75
2022/08/16 06:40:30;;;;;;;6.30;4.50;;;;;;;21.25;78.46;99548.52;1770098;79;21015;-75
2022/08/16 06:42:56;;;;;;;8.98;4.42;;;;;;;21.25;78.04;99548.00;1813518;78;22528;-77
2022/08/16 06:45:24;;;;;;;7.60;3.98;;;;;;;21.22;77.60;99542.20;1792164;78;21066;-75
2022/08/16 06:48:08;;;;;;;6.72;3.80;;;;;;;21.18;77.47;99543.16;1804878;78;21097;-75
2022/08/16 06:50:36;;;;;;;8.48;3.77;;;;;;;21.17;77.58;99543.37;1801107;78;21454;-74
2022/08/16 06:53:05;;;;;;;6.60;4.50;;;;;;;21.15;77.58;99539.56;1801745;78;20975;-76
2022/08/16 06:55:33;;;;;;;7.28;4.22;;;;;;;21.15;77.94;99547.62;1836223;77;21781;-80
2022/08/16 06:58:01;;;;;;;6.83;4.17;;;;;;;21.17;78.28;99546.88;1764377;78;20972;-75
2022/08/16 07:00:28;;;;;;;10.10;5.22;;;;;;;21.21;78.54;99540.56;1753902;80;21119;-82
2022/08/16 07:03:03;;;;;;;9.10;5.42;;;;;;;21.23;78.93;99540.68;1817243;78;20956;-80
2022/08/16 07:05:32;;;;;;;10.75;7.65;;;;;;;21.29;79.33;99534.48;1773370;79;21019;-75
2022/08/16 07:08:03;;;;;;;9.93;5.80;;;;;;;21.36;79.63;99532.60;1784034;78;21809;-75
2022/08/16 07:10:29;;;;;;;8.58;5.83;;;;;;;21.43;80.10;99519.16;1788000;78;21111;-76
2022/08/16 07:12:55;;;;;;;15.60;9.10;;;;;;;21.46;80.48;99522.75;1796171;78;21040;-74
2022/08/16 07:15:22;;;;;;;12.98;7.20;;;;;;;21.47;80.78;99527.60;1784811;78;22198;-75
2022/08/16 07:17:49;;;;;;;12.35;6.90;;;;;;;21.50;81.06;99530.67;1780974;78;21060;-75
2022/08/16 07:20:18;;;;;;;9.88;5.87;;;;;;;21.54;81.37;99527.06;1790461;77;21925;-76
2022/08/16 07:22:45;;;;;;;8.95;5.60;;;;;;;21.59;81.68;99527.23;1825430;77;20964;-75
2022/08/16 07:25:14;;;;;;;9.60;5.33;;;;;;;21.61;81.91;99527.83;1804607;78;20963;-75
2022/08/16 07:27:41;;;;;;;9.73;4.58;;;;;;;21.57;81.92;99532.82;1813568;78;21300;-75
2022/08/16 07:30:12;;;;;;;8.58;4.53;;;;;;;21.53;81.90;99528.92;1811543;78;20963;-76
2022/08/16 07:32:38;;;;;;;7.58;4.50;;;;;;;21.50;81.81;99537.39;1818056;78;22744;-76
2022/08/16 07:35:06;;;;;;;8.05;4.08;;;;;;;21.47;81.75;99535.66;1770810;78;20920;-76
2022/08/16 07:37:32;;;;;;;8.85;4.70;;;;;;;21.38;81.76;99542.61;1787731;78;21043;-81
2022/08/16 07:40:09;;;;;;;8.83;5.03;;;;;;;21.36;81.97;99551.41;1741032;78;21020;-75
2022/08/16 07:42:38;;;;;;;9.95;5.10;;;;;;;21.36;82.16;99555.95;1788172;78;21000;-76
2022/08/16 07:45:06;;;;;;;14.75;5.60;;;;;;;21.37;82.34;99559.77;1786162;78;21805;-76
2022/08/16 07:47:33;;;;;;;10.90;5.50;;;;;;;21.37;82.56;99562.97;1792298;78;21051;-75
2022/08/16 07:50:00;;;;;;;9.53;5.40;;;;;;;21.39;82.94;99560.89;1818515;78;21475;-75
2022/08/16 07:52:29;;;;;;;13.83;5.58;;;;;;;21.40;83.24;99551.80;1819772;78;20991;-75
2022/08/16 07:54:57;;;;;;;7.53;4.92;;;;;;;21.42;83.54;99559.12;1820936;78;20929;-74
2022/08/16 07:57:23;;;;;;;10.55;5.15;;;;;;;21.47;83.77;99558.50;1816035;78;21861;-76
2022/08/16 07:59:50;;;;;;;8.33;4.80;;;;;;;21.48;83.87;99557.45;1809453;78;20956;-76
2022/08/16 08:02:18;;;;;;;8.58;4.97;;;;;;;21.49;83.84;99566.64;1818279;78;21063;-74
2022/08/16 08:04:45;;;;;;;8.08;5.12;;;;;;;21.48;83.68;99574.92;1816051;78;21048;-77
2022/08/16 08:07:11;;;;;;;8.10;4.97;;;;;;;21.48;83.69;99574.40;1815920;78;21058;-75
2022/08/16 08:09:39;;;;;;;9.48;4.92;;;;;;;21.49;83.71;99584.11;1816608;77;22352;-78
2022/08/16 08:12:07;;;;;;;8.58;4.40;;;;;;;21.46;83.61;99585.06;1819663;77;21038;-77
2022/08/16 08:14:35;;;;;;;9.20;4.65;;;;;;;21.48;83.77;99577.61;1816520;77;20969;-77
2022/08/16 08:17:06;;;;;;;10.35;5.10;;;;;;;21.51;83.80;99575.83;1819328;77;21009;-76
2022/08/16 08:19:34;;;;;;;8.85;5.05;;;;;;;21.56;83.93;99576.86;1818143;77;21328;-77
2022/08/16 08:22:05;;;;;;;9.28;4.75;;;;;;;21.62;84.02;99582.73;1788178;78;21962;-75
2022/08/16 08:24:38;;;;;;;9.03;5.75;;;;;;;21.71;84.23;99581.46;1778070;78;21043;-76
2022/08/16 08:27:07;;;;;;;13.30;10.13;;;;;;;21.78;83.78;99577.38;1792729;77;21037;-76
2022/08/16 08:29:35;;;;;;;11.45;8.40;;;;;;;21.85;83.70;99576.84;1792882;78;21205;-79
2022/08/16 08:32:03;;;;;;;10.08;5.40;;;;;;;21.98;83.71;99579.97;1806236;78;20968;-80
2022/08/16 08:34:31;;;;;;;10.75;5.05;;;;;;;;;;1794536;77;21946;-75
2022/08/16 08:36:58;;;;;;;9.10;5.15;;;;;;;22.22;83.43;99571.18;1760040;80;21477;-77
2022/08/16 08:39:29;;;;;;;9.35;4.78;;;;;;;22.33;82.90;99564.80;1758433;80;21549;-79
2022/08/16 08:41:56;;;;;;;10.28;4.67;;;;;;;22.39;82.31;99562.56;1757274;80;21022;-78
2022/08/16 08:44:23;;;;;;;10.30;4.97;;;;;;;22.46;82.01;99551.23;1759175;80;21434;-79
2022/08/16 08:46:50;;;;;;;7.33;4.30;;;;;;;22.50;81.64;99554.63;1763460;80;21928;-80
2022/08/16 08:49:17;;;;;;;11.20;4.80;;;;;;;22.49;80.81;99543.57;1778714;80;21070;-77
2022/08/16 08:51:44;;;;;;;7.90;4.95;;;;;;;22.46;80.49;99531.05;1790346;78;21037;-75
2022/08/16 08:54:13;;;;;;;7.80;4.60;;;;;;;22.47;80.23;99531.35;1780700;78;21046;-77
2022/08/16 08:56:42;;;;;;;8.68;4.90;;;;;;;22.52;80.27;99549.02;1791689;78;21103;-82
2022/08/16 08:59:12;;;;;;;8.33;5.05;;;;;;;22.52;79.70;99551.72;1774317;80;22218;-82
2022/08/16 09:01:39;;;;;;;7.17;5.28;;;;;;;22.52;79.73;99551.72;1771676;80;21447;-77
2022/08/16 09:04:06;;;;;;;11.43;5.25;;;;;;;22.60;79.80;99556.83;1816487;78;21594;-77
2022/08/16 09:06:34;;;;;;;7.08;4.65;;;;;;;22.70;79.73;99551.77;1753763;81;21425;-81
2022/08/16 09:09:02;;;;;;;7.08;4.67;;;;;;;22.85;79.33;99558.18;1778447;78;21608;-77
2022/08/16 09:11:29;;;;;;;8.03;4.70;;;;;;;22.98;78.95;99566.67;1791152;78;21826;-79
2022/08/16 09:13:57;;;;;;;5.40;4.60;;;;;;;23.18;79.24;99565.13;1788925;78;21030;-77
2022/08/16 09:16:24;;;;;;;9.38;4.80;;;;;;;23.41;78.62;99563.40;1742201;81;21038;-81
2022/08/16 09:18:51;;;;;;;8.38;6.40;;;;;;;23.65;77.80;99555.50;1776235;80;21494;-81
2022/08/16 09:21:19;;;;;;;9.60;5.55;;;;;;;23.82;76.20;99567.28;1752140;80;21028;-77
2022/08/16 09:23:45;;;;;;;11.33;5.30;;;;;;;23.91;74.70;99571.83;1782476;79;21981;-79
2022/08/16 09:26:14;;;;;;;10.00;7.03;;;;;;;23.94;73.26;99576.27;1784357;79;21540;-79
2022/08/16 09:28:42;;;;;;;10.82;6.50;;;;;;;23.93;72.59;99577.81;1783597;79;21042;-79
2022/08/16 09:31:12;;;;;;;7.80;4.90;;;;;;;23.96;72.82;99578.20;1798956;78;21011;-78
2022/08/16 09:33:39;;;;;;;6.03;4.97;;;;;;;23.99;72.05;99583.13;1796578;77;21426;-80
2022/08/16 09:36:07;;;;;;;7.70;4.40;;;;;;;23.93;71.51;99590.80;1792913;78;21756;-82
2022/08/16 09:38:34;;;;;;;8.90;4.72;;;;;;;23.90;71.70;99594.47;1774300;78;21031;-83
2022/08/16 09:41:04;;;;;;;7.40;4.47;;;;;;;23.85;70.51;99591.11;1789060;79;21013;-80
2022/08/16 09:43:32;;;;;;;7.25;4.28;;;;;;;23.71;70.35;99595.02;1801178;78;21072;-77
2022/08/16 09:45:59;;;;;;;6.03;4.35;;;;;;;23.61;70.85;99596.07;1795711;78;21002;-76
2022/08/16 09:48:27;;;;;;;7.50;4.62;;;;;;;23.61;71.37;99600.11;1810011;78;21884;-81
2022/08/16 09:50:53;;;;;;;9.78;4.78;;;;;;;23.61;71.27;99600.11;1822114;77;21028;-80
2022/08/16 09:53:22;;;;;;;9.73;4.70;;;;;;;23.58;71.40;99607.28;1822101;78;21110;-79
2022/08/16 09:55:52;;;;;;;9.48;5.80;;;;;;;23.53;71.38;99607.12;1821448;78;21016;-77
2022/08/16 09:58:22;;;;;;;8.88;5.40;;;;;;;23.48;71.35;99601.06;1821092;77;21042;-82
2022/08/16 10:00:50;;;;;;;9.85;7.42;;;;;;;23.43;71.47;99604.42;1818842;77;22408;-76
2022/08/16 10:03:17;;;;;;;8.60;4.95;;;;;;;23.43;71.35;99600.38;1762908;78;21011;-80
2022/08/16 10:05:43;;;;;;;8.43;4.33;;;;;;;23.45;71.51;99604.71;1820692;77;21462;-81
2022/08/16 10:08:12;;;;;;;6.72;4.58;;;;;;;23.45;71.66;99612.80;1809115;77;20951;-78
2022/08/16 10:13:10;;;;;;;7.72;4.55;;;;;;;23.45;71.25;99615.49;1821535;78;20984;-79
2022/08/16 10:13:13;;;;;;;9.08;5.10;;;;;;;23.45;71.05;99612.80;1814475;78;22531;-77
2022/08/16 10:15:43;;;;;;;10.18;4.70;;;;;;;23.45;71.02;99610.95;1826398;77;21034;-77
2022/08/16 10:18:11;;;;;;;9.33;5.80;;;;;;;23.46;70.53;99614.47;1821652;77;21004;-76
2022/08/16 10:20:42;;;;;;;7.47;5.35;;;;;;;23.46;70.41;99622.56;1811300;78;20991;-76
2022/08/16 10:23:12;;;;;;;10.32;5.92;;;;;;;23.50;70.22;99621.05;1817345;78;21371;-76
2022/08/16 10:25:41;;;;;;;13.13;6.17;;;;;;;23.52;69.78;99636.47;1815830;78;23045;-77
2022/08/16 10:28:08;;;;;;;10.43;6.72;;;;;;;23.53;69.47;99631.38;1756811;79;20972;-77
2022/08/16 10:30:35;;;;;;;11.05;6.53;;;;;;;23.52;68.94;99637.30;1792822;78;21069;-78
2022/08/16 10:33:03;;;;;;;10.03;6.45;;;;;;;23.47;68.16;99641.20;1806592;78;21048;-76
2022/08/16 10:35:30;;;;;;;10.58;6.85;;;;;;;23.39;68.37;99649.05;1780284;78;21023;-78
2022/08/16 10:37:57;;;;;;;9.18;7.12;;;;;;;23.37;68.61;99651.14;1774761;79;21898;-76
2022/08/16 10:40:23;;;;;;;9.10;6.60;;;;;;;23.36;68.81;99655.41;1771910;80;20984;-75
2022/08/16 10:42:50;;;;;;;10.98;6.50;;;;;;;23.37;68.94;99657.88;1785612;79;21072;-77
2022/08/16 10:45:17;;;;;;;12.03;7.45;;;;;;;23.34;68.97;99668.27;1786212;79;22064;-78
2022/08/16 10:47:44;;;;;;;10.38;7.53;;;;;;;23.31;69.29;99670.88;1786427;80;21161;-76
2022/08/16 10:50:11;;;;;;;11.60;7.62;;;;;;;23.29;69.47;99673.51;1779344;80;21819;-77
2022/08/16 10:52:38;;;;;;;11.97;7.85;;;;;;;23.22;69.93;99682.16;1767883;80;21049;-76
2022/08/16 10:55:11;;;;;;;11.63;7.85;;;;;;;23.17;70.52;99685.53;1782017;80;21018;-79
2022/08/16 10:57:35;;;;;;;12.90;8.23;;;;;;;23.13;70.91;99690.52;1755506;81;21073;-78
2022/08/16 11:00:09;;;;;;;12.50;7.87;;;;;;;23.07;71.35;99693.29;1807283;78;21047;-78
2022/08/16 11:02:38;;;;;;;12.58;8.70;;;;;;;23.00;71.62;99691.16;1779240;80;21853;-75
2022/08/16 11:05:11;;;;;;;11.88;8.38;;;;;;;22.96;72.11;99690.75;1791801;78;21064;-74
2022/08/16 11:07:37;;;;;;;15.80;8.65;;;;;;;22.91;72.58;99696.52;1768882;81;21062;-73
2022/08/16 11:10:04;;;;;;;12.98;8.30;;;;;;;22.82;72.88;99703.47;1766987;81;21106;-76
2022/08/16 11:12:31;;;;;;;13.60;9.33;;;;;;;22.76;73.22;99696.25;1766690;81;21047;-75
2022/08/16 11:14:58;;;;;;;13.40;8.98;;;;;;;22.73;73.52;99695.87;1768447;81;22558;-78
2022/08/16 11:17:25;;;;;;;16.82;9.40;;;;;;;22.70;73.79;99696.31;1771697;80;21596;-75
2022/08/16 11:19:51;;;;;;;13.35;9.85;;;;;;;22.67;73.95;99694.86;1765614;80;21054;-76
2022/08/16 11:22:18;;;;;;;12.95;9.33;;;;;;;22.63;74.09;99698.22;1766169;80;21050;-74
2022/08/16 11:24:45;;;;;;;13.68;9.73;;;;;;;22.62;74.42;99699.27;1767361;79;21042;-76
2022/08/16 11:27:19;;;;;;;13.65;9.98;;;;;;;22.78;73.94;99695.54;1792286;78;21919;-78
2022/08/16 11:29:45;;;;;;;;;;;;;;;22.77;74.26;99689.83;1815862;78;20994;-79
2022/08/16 11:32:11;;;;;;;13.35;10.05;;;;;;;22.78;74.54;99696.89;1805906;78;20473;-73